sensor_id;sensor_type;location;lat;lon;timestamp;P1;durP1;ratioP1;P2;durP2;ratioP2
63012;SDS011;62113;45.624;11.700;2024-03-07T00:00:16;3.87;;;2.40;;
63012;SDS011;62113;45.624;11.700;2024-03-07T00:02:43;5.03;;;2.30;;
63012;SDS011;62113;45.624;11.700;2024-03-07T00:05:09;6.32;;;2.47;;
63012;SDS011;62113;45.624;11.700;2024-03-07T00:07:36;3.03;;;2.28;;
63012;SDS011;62113;45.624;11.700;2024-03-07T00:10:02;3.90;;;2.08;;
63012;SDS011;62113;45.624;11.700;2024-03-07T00:12:28;3.15;;;2.08;;
63012;SDS011;62113;45.624;11.700;2024-03-07T00:14:55;2.83;;;2.42;;
63012;SDS011;62113;45.624;11.700;2024-03-07T00:17:20;3.80;;;2.22;;
63012;SDS011;62113;45.624;11.700;2024-03-07T00:19:48;2.83;;;2.17;;
63012;SDS011;62113;45.624;11.700;2024-03-07T00:22:13;2.47;;;2.28;;
63012;SDS011;62113;45.624;11.700;2024-03-07T00:24:39;5.00;;;2.83;;
63012;SDS011;62113;45.624;11.700;2024-03-07T00:27:05;7.43;;;2.87;;
63012;SDS011;62113;45.624;11.700;2024-03-07T00:29:32;3.78;;;2.72;;
63012;SDS011;62113;45.624;11.700;2024-03-07T00:32:00;3.10;;;2.50;;
63012;SDS011;62113;45.624;11.700;2024-03-07T00:34:26;2.77;;;2.37;;
63012;SDS011;62113;45.624;11.700;2024-03-07T00:36:52;4.50;;;2.43;;
63012;SDS011;62113;45.624;11.700;2024-03-07T00:39:18;5.33;;;2.57;;
63012;SDS011;62113;45.624;11.700;2024-03-07T00:41:44;2.35;;;2.08;;
63012;SDS011;62113;45.624;11.700;2024-03-07T00:44:10;3.93;;;2.60;;
63012;SDS011;62113;45.624;11.700;2024-03-07T00:46:36;2.53;;;2.33;;
63012;SDS011;62113;45.624;11.700;2024-03-07T00:49:02;5.43;;;2.60;;
63012;SDS011;62113;45.624;11.700;2024-03-07T00:51:28;5.95;;;2.30;;
63012;SDS011;62113;45.624;11.700;2024-03-07T00:53:54;2.50;;;1.90;;
63012;SDS011;62113;45.624;11.700;2024-03-07T00:56:20;3.03;;;2.43;;
63012;SDS011;62113;45.624;11.700;2024-03-07T00:58:50;2.33;;;2.05;;
63012;SDS011;62113;45.624;11.700;2024-03-07T01:01:16;3.22;;;2.53;;
63012;SDS011;62113;45.624;11.700;2024-03-07T01:03:42;4.10;;;2.38;;
63012;SDS011;62113;45.624;11.700;2024-03-07T01:06:08;3.73;;;2.20;;
63012;SDS011;62113;45.624;11.700;2024-03-07T01:08:37;2.83;;;2.15;;
63012;SDS011;62113;45.624;11.700;2024-03-07T01:11:03;3.00;;;2.38;;
63012;SDS011;62113;45.624;11.700;2024-03-07T01:13:37;4.13;;;2.53;;
63012;SDS011;62113;45.624;11.700;2024-03-07T01:16:06;4.10;;;2.70;;
63012;SDS011;62113;45.624;11.700;2024-03-07T01:18:32;3.67;;;2.23;;
63012;SDS011;62113;45.624;11.700;2024-03-07T01:20:58;3.42;;;2.42;;
63012;SDS011;62113;45.624;11.700;2024-03-07T01:23:27;4.22;;;2.42;;
63012;SDS011;62113;45.624;11.700;2024-03-07T01:25:55;2.28;;;2.08;;
63012;SDS011;62113;45.624;11.700;2024-03-07T01:28:21;3.65;;;2.22;;
63012;SDS011;62113;45.624;11.700;2024-03-07T01:30:48;2.80;;;2.50;;
63012;SDS011;62113;45.624;11.700;2024-03-07T01:33:17;2.42;;;2.22;;
63012;SDS011;62113;45.624;11.700;2024-03-07T01:35:44;3.00;;;2.55;;
63012;SDS011;62113;45.624;11.700;2024-03-07T01:38:10;2.25;;;2.05;;
63012;SDS011;62113;45.624;11.700;2024-03-07T01:40:38;4.80;;;2.47;;
63012;SDS011;62113;45.624;11.700;2024-03-07T01:43:04;3.38;;;2.50;;
63012;SDS011;62113;45.624;11.700;2024-03-07T01:45:31;2.72;;;2.53;;
63012;SDS011;62113;45.624;11.700;2024-03-07T01:47:57;2.53;;;2.33;;
63012;SDS011;62113;45.624;11.700;2024-03-07T01:50:23;3.88;;;2.13;;
63012;SDS011;62113;45.624;11.700;2024-03-07T01:52:49;3.43;;;2.50;;
63012;SDS011;62113;45.624;11.700;2024-03-07T01:55:16;3.38;;;2.30;;
63012;SDS011;62113;45.624;11.700;2024-03-07T01:57:43;3.67;;;2.55;;
63012;SDS011;62113;45.624;11.700;2024-03-07T02:00:10;2.45;;;2.22;;
63012;SDS011;62113;45.624;11.700;2024-03-07T02:02:36;5.90;;;2.93;;
63012;SDS011;62113;45.624;11.700;2024-03-07T02:05:02;4.60;;;2.60;;
63012;SDS011;62113;45.624;11.700;2024-03-07T02:07:29;7.82;;;2.38;;
63012;SDS011;62113;45.624;11.700;2024-03-07T02:10:04;3.15;;;2.40;;
63012;SDS011;62113;45.624;11.700;2024-03-07T02:12:31;6.53;;;2.70;;
63012;SDS011;62113;45.624;11.700;2024-03-07T02:14:57;6.03;;;3.00;;
63012;SDS011;62113;45.624;11.700;2024-03-07T02:17:23;5.40;;;3.20;;
63012;SDS011;62113;45.624;11.700;2024-03-07T02:19:50;3.90;;;2.63;;
63012;SDS011;62113;45.624;11.700;2024-03-07T02:22:16;5.38;;;2.50;;
63012;SDS011;62113;45.624;11.700;2024-03-07T02:24:42;2.97;;;2.22;;
63012;SDS011;62113;45.624;11.700;2024-03-07T02:27:07;3.03;;;2.73;;
63012;SDS011;62113;45.624;11.700;2024-03-07T02:29:34;2.88;;;2.60;;
63012;SDS011;62113;45.624;11.700;2024-03-07T02:32:01;2.85;;;2.65;;
63012;SDS011;62113;45.624;11.700;2024-03-07T02:34:27;4.07;;;3.13;;
63012;SDS011;62113;45.624;11.700;2024-03-07T02:36:53;3.13;;;2.47;;
63012;SDS011;62113;45.624;11.700;2024-03-07T02:39:19;4.05;;;3.08;;
63012;SDS011;62113;45.624;11.700;2024-03-07T02:41:46;3.10;;;2.80;;
63012;SDS011;62113;45.624;11.700;2024-03-07T02:44:12;5.65;;;3.05;;
63012;SDS011;62113;45.624;11.700;2024-03-07T02:46:39;6.07;;;3.08;;
63012;SDS011;62113;45.624;11.700;2024-03-07T02:49:05;5.35;;;2.95;;
63012;SDS011;62113;45.624;11.700;2024-03-07T02:51:30;3.27;;;2.87;;
63012;SDS011;62113;45.624;11.700;2024-03-07T02:53:56;6.82;;;3.03;;
63012;SDS011;62113;45.624;11.700;2024-03-07T02:56:23;4.40;;;3.20;;
63012;SDS011;62113;45.624;11.700;2024-03-07T02:58:49;4.88;;;2.90;;
63012;SDS011;62113;45.624;11.700;2024-03-07T03:01:14;3.45;;;2.80;;
63012;SDS011;62113;45.624;11.700;2024-03-07T03:03:40;3.30;;;2.57;;
63012;SDS011;62113;45.624;11.700;2024-03-07T03:08:33;3.63;;;3.00;;
63012;SDS011;62113;45.624;11.700;2024-03-07T03:11:00;3.13;;;2.83;;
63012;SDS011;62113;45.624;11.700;2024-03-07T03:13:25;4.70;;;3.77;;
63012;SDS011;62113;45.624;11.700;2024-03-07T03:15:55;4.18;;;2.70;;
63012;SDS011;62113;45.624;11.700;2024-03-07T03:18:24;3.20;;;2.90;;
63012;SDS011;62113;45.624;11.700;2024-03-07T03:20:50;5.03;;;3.00;;
63012;SDS011;62113;45.624;11.700;2024-03-07T03:23:17;5.30;;;3.55;;
63012;SDS011;62113;45.624;11.700;2024-03-07T03:25:43;3.47;;;2.63;;
63012;SDS011;62113;45.624;11.700;2024-03-07T03:28:10;10.90;;;3.00;;
63012;SDS011;62113;45.624;11.700;2024-03-07T03:30:39;5.37;;;2.70;;
63012;SDS011;62113;45.624;11.700;2024-03-07T03:33:06;4.30;;;2.80;;
63012;SDS011;62113;45.624;11.700;2024-03-07T03:35:32;5.55;;;2.70;;
63012;SDS011;62113;45.624;11.700;2024-03-07T03:38:07;3.40;;;2.80;;
63012;SDS011;62113;45.624;11.700;2024-03-07T03:40:33;5.57;;;3.10;;
63012;SDS011;62113;45.624;11.700;2024-03-07T03:42:59;3.50;;;2.70;;
63012;SDS011;62113;45.624;11.700;2024-03-07T03:45:28;3.55;;;3.00;;
63012;SDS011;62113;45.624;11.700;2024-03-07T03:47:53;5.88;;;3.13;;
63012;SDS011;62113;45.624;11.700;2024-03-07T03:50:19;2.97;;;2.58;;
63012;SDS011;62113;45.624;11.700;2024-03-07T03:52:48;5.28;;;2.47;;
63012;SDS011;62113;45.624;11.700;2024-03-07T03:55:14;2.85;;;2.65;;
63012;SDS011;62113;45.624;11.700;2024-03-07T03:57:40;5.33;;;2.93;;
63012;SDS011;62113;45.624;11.700;2024-03-07T04:05:05;4.78;;;3.08;;
63012;SDS011;62113;45.624;11.700;2024-03-07T04:07:30;5.80;;;3.45;;
63012;SDS011;62113;45.624;11.700;2024-03-07T04:09:56;10.20;;;3.40;;
63012;SDS011;62113;45.624;11.700;2024-03-07T04:12:23;7.93;;;3.70;;
63012;SDS011;62113;45.624;11.700;2024-03-07T04:14:49;5.97;;;4.00;;
63012;SDS011;62113;45.624;11.700;2024-03-07T04:17:14;8.00;;;5.43;;
63012;SDS011;62113;45.624;11.700;2024-03-07T04:19:41;5.50;;;4.17;;
63012;SDS011;62113;45.624;11.700;2024-03-07T04:24:33;12.75;;;6.78;;
63012;SDS011;62113;45.624;11.700;2024-03-07T04:27:00;5.00;;;4.45;;
63012;SDS011;62113;45.624;11.700;2024-03-07T04:29:29;6.13;;;4.30;;
63012;SDS011;62113;45.624;11.700;2024-03-07T04:31:55;4.05;;;3.65;;
63012;SDS011;62113;45.624;11.700;2024-03-07T04:34:21;4.23;;;3.40;;
63012;SDS011;62113;45.624;11.700;2024-03-07T04:36:46;5.33;;;3.77;;
63012;SDS011;62113;45.624;11.700;2024-03-07T04:39:12;3.53;;;3.23;;
63012;SDS011;62113;45.624;11.700;2024-03-07T04:41:50;6.13;;;4.10;;
63012;SDS011;62113;45.624;11.700;2024-03-07T04:44:17;3.70;;;3.40;;
63012;SDS011;62113;45.624;11.700;2024-03-07T04:46:44;7.93;;;3.92;;
63012;SDS011;62113;45.624;11.700;2024-03-07T04:49:10;4.87;;;3.90;;
63012;SDS011;62113;45.624;11.700;2024-03-07T04:51:35;6.17;;;3.67;;
63012;SDS011;62113;45.624;11.700;2024-03-07T04:54:01;3.47;;;3.17;;
63012;SDS011;62113;45.624;11.700;2024-03-07T04:56:26;4.40;;;3.30;;
63012;SDS011;62113;45.624;11.700;2024-03-07T04:58:52;7.40;;;3.33;;
63012;SDS011;62113;45.624;11.700;2024-03-07T05:01:19;4.65;;;3.75;;
63012;SDS011;62113;45.624;11.700;2024-03-07T05:06:11;5.00;;;3.83;;
63012;SDS011;62113;45.624;11.700;2024-03-07T05:08:37;5.22;;;3.20;;
63012;SDS011;62113;45.624;11.700;2024-03-07T05:11:03;3.90;;;2.83;;
63012;SDS011;62113;45.624;11.700;2024-03-07T05:13:29;7.00;;;3.80;;
63012;SDS011;62113;45.624;11.700;2024-03-07T05:15:56;3.42;;;3.10;;
63012;SDS011;62113;45.624;11.700;2024-03-07T05:18:22;8.53;;;3.10;;
63012;SDS011;62113;45.624;11.700;2024-03-07T05:20:48;5.22;;;3.65;;
63012;SDS011;62113;45.624;11.700;2024-03-07T05:23:14;4.63;;;3.80;;
63012;SDS011;62113;45.624;11.700;2024-03-07T05:25:39;5.22;;;4.30;;
63012;SDS011;62113;45.624;11.700;2024-03-07T05:28:05;4.30;;;3.90;;
63012;SDS011;62113;45.624;11.700;2024-03-07T05:30:31;4.30;;;3.90;;
63012;SDS011;62113;45.624;11.700;2024-03-07T05:32:58;4.75;;;3.90;;
63012;SDS011;62113;45.624;11.700;2024-03-07T05:35:25;5.45;;;3.95;;
63012;SDS011;62113;45.624;11.700;2024-03-07T05:37:54;6.03;;;3.85;;
63012;SDS011;62113;45.624;11.700;2024-03-07T05:40:21;3.55;;;3.25;;
63012;SDS011;62113;45.624;11.700;2024-03-07T05:42:47;5.43;;;3.50;;
63012;SDS011;62113;45.624;11.700;2024-03-07T05:45:13;4.80;;;3.97;;
63012;SDS011;62113;45.624;11.700;2024-03-07T05:47:40;7.55;;;3.45;;
63012;SDS011;62113;45.624;11.700;2024-03-07T05:50:06;4.35;;;3.85;;
63012;SDS011;62113;45.624;11.700;2024-03-07T05:52:35;4.38;;;3.50;;
63012;SDS011;62113;45.624;11.700;2024-03-07T05:55:01;6.65;;;3.63;;
63012;SDS011;62113;45.624;11.700;2024-03-07T05:57:31;4.38;;;3.70;;
63012;SDS011;62113;45.624;11.700;2024-03-07T05:59:57;6.72;;;3.75;;
63012;SDS011;62113;45.624;11.700;2024-03-07T06:02:22;6.60;;;3.90;;
63012;SDS011;62113;45.624;11.700;2024-03-07T06:04:48;6.90;;;3.80;;
63012;SDS011;62113;45.624;11.700;2024-03-07T06:07:14;7.40;;;4.00;;
63012;SDS011;62113;45.624;11.700;2024-03-07T06:09:39;5.85;;;4.00;;
63012;SDS011;62113;45.624;11.700;2024-03-07T06:12:05;5.90;;;3.65;;
63012;SDS011;62113;45.624;11.700;2024-03-07T06:14:33;7.70;;;3.67;;
63012;SDS011;62113;45.624;11.700;2024-03-07T06:16:59;5.53;;;3.85;;
63012;SDS011;62113;45.624;11.700;2024-03-07T06:19:26;6.78;;;4.13;;
63012;SDS011;62113;45.624;11.700;2024-03-07T06:21:51;7.50;;;4.50;;
63012;SDS011;62113;45.624;11.700;2024-03-07T06:24:18;5.22;;;4.47;;
63012;SDS011;62113;45.624;11.700;2024-03-07T06:26:44;5.65;;;4.63;;
63012;SDS011;62113;45.624;11.700;2024-03-07T06:29:13;8.03;;;5.43;;
63012;SDS011;62113;45.624;11.700;2024-03-07T06:31:41;6.60;;;4.47;;
63012;SDS011;62113;45.624;11.700;2024-03-07T06:34:06;9.77;;;5.00;;
63012;SDS011;62113;45.624;11.700;2024-03-07T06:36:33;6.78;;;4.88;;
63012;SDS011;62113;45.624;11.700;2024-03-07T06:38:59;9.52;;;5.38;;
63012;SDS011;62113;45.624;11.700;2024-03-07T06:41:25;9.10;;;5.53;;
63012;SDS011;62113;45.624;11.700;2024-03-07T06:43:51;10.23;;;5.70;;
63012;SDS011;62113;45.624;11.700;2024-03-07T06:46:20;13.40;;;5.03;;
63012;SDS011;62113;45.624;11.700;2024-03-07T06:48:46;5.95;;;4.45;;
63012;SDS011;62113;45.624;11.700;2024-03-07T06:51:11;6.50;;;5.07;;
63012;SDS011;62113;45.624;11.700;2024-03-07T06:53:38;5.72;;;4.80;;
63012;SDS011;62113;45.624;11.700;2024-03-07T06:56:04;7.82;;;5.22;;
63012;SDS011;62113;45.624;11.700;2024-03-07T06:58:31;9.60;;;5.03;;
63012;SDS011;62113;45.624;11.700;2024-03-07T07:00:57;8.38;;;4.40;;
63012;SDS011;62113;45.624;11.700;2024-03-07T07:03:25;7.35;;;4.93;;
63012;SDS011;62113;45.624;11.700;2024-03-07T07:05:53;7.55;;;5.35;;
63012;SDS011;62113;45.624;11.700;2024-03-07T07:08:19;8.07;;;5.05;;
63012;SDS011;62113;45.624;11.700;2024-03-07T07:10:45;9.63;;;5.77;;
63012;SDS011;62113;45.624;11.700;2024-03-07T07:13:11;8.95;;;6.18;;
63012;SDS011;62113;45.624;11.700;2024-03-07T07:15:38;14.18;;;6.22;;
63012;SDS011;62113;45.624;11.700;2024-03-07T07:18:04;11.77;;;5.50;;
63012;SDS011;62113;45.624;11.700;2024-03-07T07:20:32;12.40;;;6.00;;
63012;SDS011;62113;45.624;11.700;2024-03-07T07:25:27;9.48;;;5.85;;
63012;SDS011;62113;45.624;11.700;2024-03-07T07:27:52;10.25;;;5.68;;
63012;SDS011;62113;45.624;11.700;2024-03-07T07:30:19;8.13;;;5.20;;
63012;SDS011;62113;45.624;11.700;2024-03-07T07:32:50;15.27;;;6.22;;
63012;SDS011;62113;45.624;11.700;2024-03-07T07:35:16;8.32;;;5.55;;
63012;SDS011;62113;45.624;11.700;2024-03-07T07:37:43;6.68;;;5.22;;
63012;SDS011;62113;45.624;11.700;2024-03-07T07:40:10;10.18;;;5.45;;
63012;SDS011;62113;45.624;11.700;2024-03-07T07:42:43;7.50;;;5.63;;
63012;SDS011;62113;45.624;11.700;2024-03-07T07:45:11;15.60;;;5.78;;
63012;SDS011;62113;45.624;11.700;2024-03-07T07:47:38;17.23;;;5.80;;
63012;SDS011;62113;45.624;11.700;2024-03-07T07:50:12;11.55;;;5.40;;
63012;SDS011;62113;45.624;11.700;2024-03-07T07:52:49;11.77;;;5.28;;
63012;SDS011;62113;45.624;11.700;2024-03-07T07:55:37;10.57;;;5.18;;
63012;SDS011;62113;45.624;11.700;2024-03-07T07:58:03;15.23;;;6.00;;
63012;SDS011;62113;45.624;11.700;2024-03-07T08:00:29;20.30;;;5.63;;
63012;SDS011;62113;45.624;11.700;2024-03-07T08:05:26;7.88;;;5.45;;
63012;SDS011;62113;45.624;11.700;2024-03-07T08:07:54;10.25;;;5.72;;
63012;SDS011;62113;45.624;11.700;2024-03-07T08:10:20;34.10;;;6.25;;
63012;SDS011;62113;45.624;11.700;2024-03-07T08:12:48;19.52;;;5.60;;
63012;SDS011;62113;45.624;11.700;2024-03-07T08:15:14;6.93;;;4.90;;
63012;SDS011;62113;45.624;11.700;2024-03-07T08:17:41;11.82;;;5.15;;
63012;SDS011;62113;45.624;11.700;2024-03-07T08:20:10;11.77;;;6.72;;
63012;SDS011;62113;45.624;11.700;2024-03-07T08:22:38;10.30;;;7.32;;
63012;SDS011;62113;45.624;11.700;2024-03-07T08:25:05;11.18;;;7.20;;
63012;SDS011;62113;45.624;11.700;2024-03-07T08:27:35;16.70;;;7.95;;
63012;SDS011;62113;45.624;11.700;2024-03-07T08:30:02;16.10;;;9.05;;
63012;SDS011;62113;45.624;11.700;2024-03-07T08:32:31;13.45;;;8.68;;
63012;SDS011;62113;45.624;11.700;2024-03-07T08:34:59;15.00;;;7.63;;
63012;SDS011;62113;45.624;11.700;2024-03-07T08:37:26;11.90;;;7.55;;
63012;SDS011;62113;45.624;11.700;2024-03-07T08:39:52;10.20;;;6.05;;
63012;SDS011;62113;45.624;11.700;2024-03-07T08:42:18;10.00;;;5.40;;
63012;SDS011;62113;45.624;11.700;2024-03-07T08:44:44;6.88;;;5.18;;
63012;SDS011;62113;45.624;11.700;2024-03-07T08:47:10;14.27;;;5.77;;
63012;SDS011;62113;45.624;11.700;2024-03-07T08:49:35;14.73;;;9.10;;
63012;SDS011;62113;45.624;11.700;2024-03-07T08:52:01;22.30;;;13.33;;
63012;SDS011;62113;45.624;11.700;2024-03-07T08:54:26;17.67;;;9.63;;
63012;SDS011;62113;45.624;11.700;2024-03-07T08:56:52;16.90;;;7.00;;
63012;SDS011;62113;45.624;11.700;2024-03-07T08:59:18;9.37;;;6.00;;
63012;SDS011;62113;45.624;11.700;2024-03-07T09:01:43;21.53;;;7.03;;
63012;SDS011;62113;45.624;11.700;2024-03-07T09:04:09;12.23;;;7.27;;
63012;SDS011;62113;45.624;11.700;2024-03-07T09:06:36;11.65;;;6.65;;
63012;SDS011;62113;45.624;11.700;2024-03-07T09:09:02;7.60;;;6.03;;
63012;SDS011;62113;45.624;11.700;2024-03-07T09:11:28;10.43;;;6.50;;
63012;SDS011;62113;45.624;11.700;2024-03-07T09:13:54;11.50;;;6.63;;
63012;SDS011;62113;45.624;11.700;2024-03-07T09:16:19;10.57;;;6.17;;
63012;SDS011;62113;45.624;11.700;2024-03-07T09:18:45;8.63;;;6.03;;
63012;SDS011;62113;45.624;11.700;2024-03-07T09:21:10;17.93;;;7.83;;
63012;SDS011;62113;45.624;11.700;2024-03-07T09:23:36;13.77;;;7.23;;
63012;SDS011;62113;45.624;11.700;2024-03-07T09:26:01;13.20;;;7.78;;
63012;SDS011;62113;45.624;11.700;2024-03-07T09:28:28;10.77;;;6.72;;
63012;SDS011;62113;45.624;11.700;2024-03-07T09:30:53;12.27;;;6.47;;
63012;SDS011;62113;45.624;11.700;2024-03-07T09:33:20;10.60;;;7.47;;
63012;SDS011;62113;45.624;11.700;2024-03-07T09:35:46;9.48;;;6.68;;
63012;SDS011;62113;45.624;11.700;2024-03-07T09:38:13;13.18;;;8.07;;
63012;SDS011;62113;45.624;11.700;2024-03-07T09:40:39;12.05;;;6.55;;
63012;SDS011;62113;45.624;11.700;2024-03-07T09:43:06;12.77;;;7.07;;
63012;SDS011;62113;45.624;11.700;2024-03-07T09:45:34;9.75;;;6.57;;
63012;SDS011;62113;45.624;11.700;2024-03-07T09:48:01;9.32;;;6.30;;
63012;SDS011;62113;45.624;11.700;2024-03-07T09:50:29;10.88;;;7.05;;
63012;SDS011;62113;45.624;11.700;2024-03-07T09:52:55;13.48;;;7.15;;
63012;SDS011;62113;45.624;11.700;2024-03-07T09:55:23;9.63;;;7.07;;
63012;SDS011;62113;45.624;11.700;2024-03-07T09:57:49;10.30;;;6.55;;
63012;SDS011;62113;45.624;11.700;2024-03-07T10:00:19;12.43;;;7.57;;
63012;SDS011;62113;45.624;11.700;2024-03-07T10:02:52;12.80;;;7.07;;
63012;SDS011;62113;45.624;11.700;2024-03-07T10:05:20;13.35;;;7.75;;
63012;SDS011;62113;45.624;11.700;2024-03-07T10:07:47;10.50;;;8.05;;
63012;SDS011;62113;45.624;11.700;2024-03-07T10:10:13;15.53;;;7.50;;
63012;SDS011;62113;45.624;11.700;2024-03-07T10:12:39;16.43;;;7.67;;
63012;SDS011;62113;45.624;11.700;2024-03-07T10:15:05;15.50;;;7.95;;
63012;SDS011;62113;45.624;11.700;2024-03-07T10:17:31;9.43;;;6.93;;
63012;SDS011;62113;45.624;11.700;2024-03-07T10:19:59;9.93;;;6.83;;
63012;SDS011;62113;45.624;11.700;2024-03-07T10:22:26;17.98;;;7.78;;
63012;SDS011;62113;45.624;11.700;2024-03-07T10:27:21;9.52;;;6.03;;
63012;SDS011;62113;45.624;11.700;2024-03-07T10:29:53;8.45;;;6.22;;
63012;SDS011;62113;45.624;11.700;2024-03-07T10:32:20;8.52;;;5.85;;
63012;SDS011;62113;45.624;11.700;2024-03-07T10:34:47;11.07;;;7.18;;
63012;SDS011;62113;45.624;11.700;2024-03-07T10:37:13;11.60;;;6.00;;
63012;SDS011;62113;45.624;11.700;2024-03-07T10:39:44;7.18;;;5.68;;
63012;SDS011;62113;45.624;11.700;2024-03-07T10:42:14;8.73;;;6.15;;
63012;SDS011;62113;45.624;11.700;2024-03-07T10:44:44;15.65;;;7.00;;
63012;SDS011;62113;45.624;11.700;2024-03-07T10:47:17;8.57;;;5.60;;
63012;SDS011;62113;45.624;11.700;2024-03-07T10:50:04;10.35;;;6.30;;
63012;SDS011;62113;45.624;11.700;2024-03-07T10:52:59;10.40;;;6.57;;
63012;SDS011;62113;45.624;11.700;2024-03-07T10:58:25;9.27;;;6.00;;
63012;SDS011;62113;45.624;11.700;2024-03-07T11:01:02;7.70;;;5.35;;
63012;SDS011;62113;45.624;11.700;2024-03-07T11:03:34;7.45;;;4.93;;
63012;SDS011;62113;45.624;11.700;2024-03-07T11:06:00;10.18;;;5.50;;
63012;SDS011;62113;45.624;11.700;2024-03-07T11:08:32;11.10;;;5.40;;
63012;SDS011;62113;45.624;11.700;2024-03-07T11:10:59;7.90;;;5.95;;
63012;SDS011;62113;45.624;11.700;2024-03-07T11:13:25;7.88;;;5.53;;
63012;SDS011;62113;45.624;11.700;2024-03-07T11:15:53;6.97;;;5.30;;
63012;SDS011;62113;45.624;11.700;2024-03-07T11:18:22;8.32;;;5.65;;
63012;SDS011;62113;45.624;11.700;2024-03-07T11:20:51;8.52;;;4.90;;
63012;SDS011;62113;45.624;11.700;2024-03-07T11:23:25;7.63;;;4.93;;
63012;SDS011;62113;45.624;11.700;2024-03-07T11:26:02;10.68;;;4.82;;
63012;SDS011;62113;45.624;11.700;2024-03-07T11:28:36;6.90;;;4.75;;
63012;SDS011;62113;45.624;11.700;2024-03-07T11:36:41;6.95;;;4.30;;
63012;SDS011;62113;45.624;11.700;2024-03-07T11:39:22;5.53;;;3.80;;
63012;SDS011;62113;45.624;11.700;2024-03-07T11:42:09;5.47;;;4.38;;
63012;SDS011;62113;45.624;11.700;2024-03-07T11:44:44;10.65;;;4.88;;
63012;SDS011;62113;45.624;11.700;2024-03-07T11:47:11;9.98;;;5.15;;
63012;SDS011;62113;45.624;11.700;2024-03-07T11:49:38;6.03;;;4.65;;
63012;SDS011;62113;45.624;11.700;2024-03-07T11:52:04;9.48;;;4.82;;
63012;SDS011;62113;45.624;11.700;2024-03-07T11:54:37;5.53;;;4.10;;
63012;SDS011;62113;45.624;11.700;2024-03-07T11:57:07;4.93;;;3.78;;
63012;SDS011;62113;45.624;11.700;2024-03-07T11:59:39;8.82;;;5.88;;
63012;SDS011;62113;45.624;11.700;2024-03-07T12:02:09;4.80;;;4.10;;
63012;SDS011;62113;45.624;11.700;2024-03-07T12:04:35;7.90;;;4.43;;
63012;SDS011;62113;45.624;11.700;2024-03-07T12:07:00;5.13;;;3.40;;
63012;SDS011;62113;45.624;11.700;2024-03-07T12:09:26;7.73;;;4.70;;
63012;SDS011;62113;45.624;11.700;2024-03-07T12:11:51;13.03;;;6.30;;
63012;SDS011;62113;45.624;11.700;2024-03-07T12:14:20;6.32;;;5.07;;
63012;SDS011;62113;45.624;11.700;2024-03-07T12:16:46;6.35;;;5.15;;
63012;SDS011;62113;45.624;11.700;2024-03-07T12:19:12;8.43;;;6.57;;
63012;SDS011;62113;45.624;11.700;2024-03-07T12:21:42;10.80;;;5.85;;
63012;SDS011;62113;45.624;11.700;2024-03-07T12:24:12;7.28;;;4.45;;
63012;SDS011;62113;45.624;11.700;2024-03-07T12:26:38;5.82;;;4.00;;
63012;SDS011;62113;45.624;11.700;2024-03-07T12:29:07;6.67;;;3.67;;
63012;SDS011;62113;45.624;11.700;2024-03-07T12:31:37;4.78;;;3.83;;
63012;SDS011;62113;45.624;11.700;2024-03-07T12:34:03;4.85;;;4.18;;
63012;SDS011;62113;45.624;11.700;2024-03-07T12:36:30;8.48;;;4.82;;
63012;SDS011;62113;45.624;11.700;2024-03-07T12:39:00;6.43;;;4.80;;
63012;SDS011;62113;45.624;11.700;2024-03-07T12:41:49;9.90;;;4.53;;
63012;SDS011;62113;45.624;11.700;2024-03-07T12:44:18;8.90;;;5.68;;
63012;SDS011;62113;45.624;11.700;2024-03-07T12:46:47;6.72;;;4.47;;
63012;SDS011;62113;45.624;11.700;2024-03-07T12:49:18;6.93;;;5.10;;
63012;SDS011;62113;45.624;11.700;2024-03-07T12:51:44;6.43;;;4.67;;
63012;SDS011;62113;45.624;11.700;2024-03-07T12:54:10;6.27;;;4.73;;
63012;SDS011;62113;45.624;11.700;2024-03-07T12:56:36;6.37;;;5.13;;
63012;SDS011;62113;45.624;11.700;2024-03-07T12:59:05;5.20;;;4.15;;
63012;SDS011;62113;45.624;11.700;2024-03-07T13:01:34;11.75;;;5.10;;
63012;SDS011;62113;45.624;11.700;2024-03-07T13:04:04;7.32;;;4.80;;
63012;SDS011;62113;45.624;11.700;2024-03-07T13:06:33;8.57;;;5.20;;
63012;SDS011;62113;45.624;11.700;2024-03-07T13:08:59;8.15;;;5.15;;
63012;SDS011;62113;45.624;11.700;2024-03-07T13:13:53;5.60;;;4.53;;
63012;SDS011;62113;45.624;11.700;2024-03-07T13:16:20;7.95;;;4.35;;
63012;SDS011;62113;45.624;11.700;2024-03-07T13:18:45;5.60;;;4.67;;
63012;SDS011;62113;45.624;11.700;2024-03-07T13:21:11;8.13;;;5.40;;
63012;SDS011;62113;45.624;11.700;2024-03-07T13:23:42;9.88;;;7.32;;
63012;SDS011;62113;45.624;11.700;2024-03-07T13:28:41;5.28;;;4.35;;
63012;SDS011;62113;45.624;11.700;2024-03-07T13:31:07;6.37;;;4.70;;
63012;SDS011;62113;45.624;11.700;2024-03-07T13:33:33;6.23;;;3.90;;
63012;SDS011;62113;45.624;11.700;2024-03-07T13:35:59;6.65;;;4.68;;
63012;SDS011;62113;45.624;11.700;2024-03-07T13:38:26;6.53;;;4.43;;
63012;SDS011;62113;45.624;11.700;2024-03-07T13:40:51;5.83;;;4.23;;
63012;SDS011;62113;45.624;11.700;2024-03-07T13:43:18;12.82;;;6.43;;
63012;SDS011;62113;45.624;11.700;2024-03-07T13:45:43;12.33;;;6.60;;
63012;SDS011;62113;45.624;11.700;2024-03-07T13:48:10;9.73;;;6.03;;
63012;SDS011;62113;45.624;11.700;2024-03-07T13:50:38;8.98;;;5.00;;
63012;SDS011;62113;45.624;11.700;2024-03-07T13:53:09;7.00;;;5.50;;
63012;SDS011;62113;45.624;11.700;2024-03-07T14:27:00;9.32;;;5.38;;
63012;SDS011;62113;45.624;11.700;2024-03-07T14:32:26;8.00;;;5.22;;
63012;SDS011;62113;45.624;11.700;2024-03-07T14:34:56;8.53;;;5.70;;
63012;SDS011;62113;45.624;11.700;2024-03-07T14:37:40;9.32;;;5.95;;
63012;SDS011;62113;45.624;11.700;2024-03-07T14:40:15;6.35;;;4.78;;
63012;SDS011;62113;45.624;11.700;2024-03-07T14:42:44;7.77;;;5.40;;
63012;SDS011;62113;45.624;11.700;2024-03-07T14:45:13;14.07;;;9.93;;
63012;SDS011;62113;45.624;11.700;2024-03-07T14:47:44;8.65;;;5.95;;
63012;SDS011;62113;45.624;11.700;2024-03-07T14:50:12;8.20;;;5.82;;
63012;SDS011;62113;45.624;11.700;2024-03-07T14:52:41;7.80;;;5.90;;
63012;SDS011;62113;45.624;11.700;2024-03-07T14:55:10;11.93;;;6.47;;
63012;SDS011;62113;45.624;11.700;2024-03-07T14:57:40;6.63;;;5.38;;
63012;SDS011;62113;45.624;11.700;2024-03-07T15:00:06;7.80;;;5.93;;
63012;SDS011;62113;45.624;11.700;2024-03-07T15:02:47;7.30;;;5.65;;
63012;SDS011;62113;45.624;11.700;2024-03-07T15:05:14;8.95;;;5.95;;
63012;SDS011;62113;45.624;11.700;2024-03-07T15:07:41;11.77;;;5.68;;
63012;SDS011;62113;45.624;11.700;2024-03-07T15:10:11;7.65;;;4.90;;
63012;SDS011;62113;45.624;11.700;2024-03-07T15:12:53;7.10;;;5.67;;
63012;SDS011;62113;45.624;11.700;2024-03-07T15:15:19;7.93;;;5.83;;
63012;SDS011;62113;45.624;11.700;2024-03-07T15:17:49;9.18;;;5.60;;
63012;SDS011;62113;45.624;11.700;2024-03-07T15:20:15;10.77;;;6.38;;
63012;SDS011;62113;45.624;11.700;2024-03-07T15:22:57;13.88;;;5.57;;
63012;SDS011;62113;45.624;11.700;2024-03-07T15:25:26;8.40;;;5.82;;
63012;SDS011;62113;45.624;11.700;2024-03-07T15:27:53;8.93;;;6.47;;
63012;SDS011;62113;45.624;11.700;2024-03-07T15:30:21;11.73;;;6.25;;
63012;SDS011;62113;45.624;11.700;2024-03-07T15:32:50;9.35;;;5.50;;
63012;SDS011;62113;45.624;11.700;2024-03-07T15:35:16;6.63;;;5.28;;
63012;SDS011;62113;45.624;11.700;2024-03-07T15:37:47;8.43;;;5.70;;
63012;SDS011;62113;45.624;11.700;2024-03-07T15:40:17;8.90;;;7.20;;